Nicholasville, Kentucky
Current Conditions -  °F | °C
As of 1:54 AM on Thursday 23 Oct 2014 (Local Time) from KLEX Reporting Station
Overcast Overcast  
Wind Chill: 11°   Ceiling: 2300
Heat Index: 11°   Visibility: 10mi
Dew Point:   Wind: 7mph
Humidity: 68%   Direction: 30°NNE
Pressure: 30.25"   Gusts: NA
Location:  37.89°N, 84.57°W
Report Text: KLEX 230554Z 03006KT 10SM OVC023 11/05 A3025 RMK AO2 SLP241 T01060050 10117 20106 55005
Loading
Personal Weather Stations






























Interactive Weather Map
Tropical Storm Tracking
New forecast layout! Learn more

10-Day Weather Forecast

Advertisements
Track Severe Weather on mobile